Time;durP1;ratioP1;P1;durP2;ratioP2;P2;SDS_P1;SDS_P2;PMS_P1;PMS_P2;Temp;Humidity;BMP_temperature;BMP_pressure;BME280_temperature;BME280_humidity;BME280_pressure;Samples;Min_cycle;Max_cycle;Signal;HPM_P1;HPM_P2
2023/09/08 00:01:59;;;;;;;17.15;10.27;;;14.80;99.90;;;;;;7587389;19;20030;-78
2023/09/08 00:04:32;;;;;;;18.33;10.02;;;14.70;99.90;;;;;;7573590;19;20623;-78
2023/09/08 00:07:05;;;;;;;;;;;14.70;99.90;;;;;;7599704;19;20539;-77
2023/09/08 00:09:37;;;;;;;19.25;9.70;;;14.70;99.90;;;;;;7585985;19;19923;-77
2023/09/08 00:12:10;;;;;;;18.90;9.50;;;14.60;99.90;;;;;;7580768;19;20090;-78
2023/09/08 00:14:42;;;;;;;14.98;9.57;;;14.70;99.90;;;;;;7580851;19;20015;-78
2023/09/08 00:17:14;;;;;;;15.63;9.98;;;14.50;99.90;;;;;;7599426;19;20042;-78
2023/09/08 00:19:47;;;;;;;16.23;10.73;;;14.50;99.90;;;;;;7593458;19;20018;-77
2023/09/08 00:22:19;;;;;;;16.10;11.65;;;14.50;99.90;;;;;;7563821;19;20019;-78
2023/09/08 00:24:51;;;;;;;16.25;11.18;;;14.40;99.90;;;;;;7585557;19;20029;-76
2023/09/08 00:27:23;;;;;;;19.35;11.20;;;14.30;99.90;;;;;;7589986;19;20018;-76
2023/09/08 00:29:56;;;;;;;20.90;11.90;;;14.30;99.90;;;;;;7558862;19;20019;-76
2023/09/08 00:32:28;;;;;;;14.38;11.18;;;14.30;99.90;;;;;;7578288;19;20018;-78
2023/09/08 00:35:01;;;;;;;19.00;11.50;;;14.20;99.90;;;;;;7588308;19;20021;-76
2023/09/08 00:37:34;;;;;;;13.63;10.77;;;14.40;99.90;;;;;;7594728;19;20030;-78
2023/09/08 00:40:08;;;;;;;15.80;11.23;;;14.30;99.90;;;;;;7597232;19;20022;-75
2023/09/08 00:42:41;;;;;;;15.45;10.45;;;14.20;99.90;;;;;;7590780;19;20052;-77
2023/09/08 00:45:13;;;;;;;15.73;11.20;;;14.40;99.90;;;;;;7587246;19;20028;-77
2023/09/08 00:47:45;;;;;;;16.27;11.05;;;14.30;99.90;;;;;;7595345;19;20021;-78
2023/09/08 00:50:18;;;;;;;13.70;10.10;;;14.30;99.90;;;;;;7588673;19;20913;-76
2023/09/08 00:52:51;;;;;;;13.93;9.52;;;14.20;99.90;;;;;;7594500;19;20010;-78
2023/09/08 00:55:23;;;;;;;16.73;11.07;;;14.10;99.90;;;;;;7575236;19;20055;-77
2023/09/08 00:57:55;;;;;;;19.50;11.15;;;14.10;99.90;;;;;;7599502;19;20022;-79
2023/09/08 01:00:28;;;;;;;15.80;10.30;;;14.00;99.90;;;;;;7576461;19;20026;-78
2023/09/08 01:03:00;;;;;;;16.88;10.85;;;14.10;99.90;;;;;;7587707;19;20018;-75
2023/09/08 01:05:33;;;;;;;20.02;11.50;;;14.10;99.90;;;;;;7609054;19;20014;-79
2023/09/08 01:08:07;;;;;;;15.95;10.15;;;14.00;99.90;;;;;;7593445;19;20018;-78
2023/09/08 01:10:41;;;;;;;16.35;10.82;;;13.90;99.90;;;;;;7581512;19;20022;-75
2023/09/08 01:13:14;;;;;;;19.23;11.35;;;13.90;99.90;;;;;;7579882;19;20044;-79
2023/09/08 01:15:46;;;;;;;21.77;11.38;;;14.00;99.90;;;;;;7595770;19;20018;-76
2023/09/08 01:18:18;;;;;;;15.63;11.18;;;14.10;99.90;;;;;;7593338;19;20070;-75
2023/09/08 01:21:14;;;;;;;15.18;10.93;;;14.00;99.90;;;;;;7594213;19;20535;-77
2023/09/08 01:23:59;;;;;;;17.73;10.20;;;13.90;99.90;;;;;;7584051;19;20052;-76
2023/09/08 01:26:40;;;;;;;16.50;11.27;;;13.90;99.90;;;;;;7580295;19;20018;-76
2023/09/08 01:29:14;;;;;;;15.68;10.35;;;14.00;99.90;;;;;;7581015;19;20864;-76
2023/09/08 01:31:47;;;;;;;15.05;10.68;;;14.10;99.90;;;;;;7593653;19;20018;-75
2023/09/08 01:34:19;;;;;;;13.98;9.30;;;14.00;99.90;;;;;;7595096;19;20014;-74
2023/09/08 01:36:52;;;;;;;17.42;10.18;;;14.00;99.90;;;;;;7587733;19;20022;-77
2023/09/08 01:39:24;;;;;;;14.63;10.32;;;13.90;99.90;;;;;;7590307;19;20022;-76
2023/09/08 01:41:56;;;;;;;16.48;10.15;;;13.80;99.90;;;;;;7596449;19;20034;-75
2023/09/08 01:44:29;;;;;;;15.50;11.18;;;13.70;99.90;;;;;;7585353;19;20133;-75
2023/09/08 01:47:01;;;;;;;14.43;11.00;;;13.80;99.90;;;;;;7595983;19;20010;-79
2023/09/08 01:49:33;;;;;;;14.68;9.68;;;13.70;99.90;;;;;;7583010;19;20037;-78
2023/09/08 01:52:05;;;;;;;15.73;10.85;;;13.70;99.90;;;;;;7590877;19;20043;-77
2023/09/08 01:54:39;;;;;;;16.15;11.30;;;13.70;99.90;;;;;;7589093;19;20094;-78
2023/09/08 01:57:11;;;;;;;14.48;10.57;;;13.70;99.90;;;;;;7592918;19;20014;-78
2023/09/08 01:59:44;;;;;;;17.27;10.48;;;13.60;99.90;;;;;;7578268;19;20369;-77
2023/09/08 02:02:17;;;;;;;13.13;9.45;;;13.70;99.90;;;;;;7578700;19;20010;-77
2023/09/08 02:04:49;;;;;;;13.63;9.77;;;13.70;99.90;;;;;;7583238;19;20048;-77
2023/09/08 02:07:22;;;;;;;17.33;11.30;;;13.70;99.90;;;;;;7584340;19;20011;-75
2023/09/08 02:09:56;;;;;;;;;;;13.70;99.90;;;;;;7592086;19;20300;-76
2023/09/08 02:12:28;;;;;;;14.43;9.93;;;13.60;99.90;;;;;;7586218;19;19964;-77
2023/09/08 02:15:00;;;;;;;16.30;10.80;;;13.70;99.90;;;;;;7589895;19;20615;-77
2023/09/08 02:17:34;;;;;;;23.08;11.73;;;13.70;99.90;;;;;;7588950;19;20022;-77
2023/09/08 02:20:07;;;;;;;17.05;10.82;;;13.60;99.90;;;;;;7595623;19;20468;-79
2023/09/08 02:22:39;;;;;;;14.73;11.23;;;13.60;99.90;;;;;;7591677;19;20015;-78
2023/09/08 02:25:13;;;;;;;14.68;10.98;;;13.60;99.90;;;;;;7596163;19;20018;-79
2023/09/08 02:27:46;;;;;;;12.68;9.68;;;13.50;99.90;;;;;;7586694;19;20018;-77
2023/09/08 02:30:19;;;;;;;;;;;13.60;99.90;;;;;;7584051;19;21104;-79
2023/09/08 02:32:52;;;;;;;13.20;9.73;;;13.60;99.90;;;;;;7581401;19;20387;-78
2023/09/08 02:35:24;;;;;;;14.98;10.93;;;13.60;99.90;;;;;;7577354;19;20010;-77
2023/09/08 02:37:58;;;;;;;15.75;10.13;;;13.50;99.90;;;;;;7574347;19;20069;-77
2023/09/08 02:40:34;;;;;;;14.43;10.23;;;13.50;99.90;;;;;;7591855;19;20014;-78
2023/09/08 02:43:08;;;;;;;18.55;10.55;;;13.50;99.90;;;;;;7580283;19;20086;-77
2023/09/08 02:45:40;;;;;;;16.30;10.63;;;13.40;99.90;;;;;;7590819;19;20019;-76
2023/09/08 02:48:12;;;;;;;15.10;10.18;;;13.40;99.90;;;;;;7602846;19;20026;-77
2023/09/08 02:50:45;;;;;;;16.83;10.70;;;13.40;99.90;;;;;;7590490;19;20637;-78
2023/09/08 02:53:17;;;;;;;15.90;10.30;;;13.40;99.90;;;;;;7587194;19;20022;-78
2023/09/08 02:55:49;;;;;;;14.00;10.63;;;13.30;99.90;;;;;;7594733;19;20015;-78
2023/09/08 02:58:22;;;;;;;13.82;10.18;;;13.20;99.90;;;;;;7590727;19;20540;-76
2023/09/08 03:00:54;;;;;;;15.63;9.80;;;13.40;99.90;;;;;;7579144;19;20022;-78
2023/09/08 03:03:26;;;;;;;17.02;10.93;;;13.30;99.90;;;;;;7573664;19;20014;-76
2023/09/08 03:06:03;;;;;;;16.95;10.45;;;13.30;99.90;;;;;;7601453;19;20010;-79
2023/09/08 03:08:36;;;;;;;14.73;10.60;;;13.20;99.90;;;;;;7595769;19;20475;-76
2023/09/08 03:11:09;;;;;;;;;;;13.30;99.90;;;;;;7587248;19;20114;-74
2023/09/08 03:13:41;;;;;;;14.70;10.27;;;13.30;99.90;;;;;;7586639;19;19923;-77
2023/09/08 03:16:14;;;;;;;14.10;10.27;;;13.20;99.90;;;;;;7581094;19;20950;-79
2023/09/08 03:18:46;;;;;;;13.93;10.25;;;13.10;99.90;;;;;;7563945;19;20262;-76
2023/09/08 03:21:19;;;;;;;15.57;10.50;;;13.10;99.90;;;;;;7588737;19;20026;-77
2023/09/08 03:23:51;;;;;;;15.45;10.32;;;13.20;99.90;;;;;;7590116;19;20529;-77
2023/09/08 03:26:23;;;;;;;15.55;9.65;;;13.20;99.90;;;;;;7574366;19;21320;-77
2023/09/08 03:28:56;;;;;;;12.23;9.55;;;13.10;99.90;;;;;;7593371;19;20018;-77
2023/09/08 03:31:28;;;;;;;12.60;9.23;;;13.10;99.90;;;;;;7590348;19;20468;-77
2023/09/08 03:34:01;;;;;;;11.63;9.32;;;13.00;99.90;;;;;;7598281;19;20011;-77
2023/09/08 03:36:36;;;;;;;12.20;9.55;;;13.00;99.90;;;;;;7596720;19;20056;-78
2023/09/08 03:39:09;;;;;;;15.23;10.93;;;13.00;99.90;;;;;;7599667;19;20030;-78
2023/09/08 03:41:42;;;;;;;14.02;9.80;;;12.90;99.90;;;;;;7588274;19;20037;-79
2023/09/08 03:44:15;;;;;;;13.25;9.70;;;13.00;99.90;;;;;;7585779;19;20025;-78
2023/09/08 03:46:47;;;;;;;17.65;10.13;;;13.00;99.90;;;;;;7578142;19;20007;-77
2023/09/08 03:49:20;;;;;;;15.85;9.40;;;13.00;99.90;;;;;;7573380;19;20033;-79
2023/09/08 03:51:52;;;;;;;11.85;9.30;;;13.00;99.90;;;;;;7585050;19;20670;-77
2023/09/08 03:54:25;;;;;;;13.00;9.13;;;13.00;99.90;;;;;;7610581;19;20633;-76
2023/09/08 03:56:57;;;;;;;14.20;9.65;;;13.00;99.90;;;;;;7575304;19;20844;-77
2023/09/08 03:59:29;;;;;;;12.35;9.95;;;13.00;99.90;;;;;;7590924;19;20023;-77
2023/09/08 04:02:02;;;;;;;18.45;10.52;;;13.00;99.90;;;;;;7602381;19;20035;-77
2023/09/08 04:04:34;;;;;;;15.93;10.75;;;12.90;99.90;;;;;;7594563;19;20603;-76
2023/09/08 04:07:06;;;;;;;16.48;11.48;;;12.90;99.90;;;;;;7571802;19;20054;-77
2023/09/08 04:09:39;;;;;;;17.83;11.95;;;12.80;99.90;;;;;;7574206;19;20842;-76
2023/09/08 04:12:12;;;;;;;13.32;10.35;;;12.60;99.90;;;;;;7540797;19;20054;-76
2023/09/08 04:14:44;;;;;;;19.35;10.82;;;12.50;99.90;;;;;;7548828;19;20011;-78
2023/09/08 04:17:18;;;;;;;16.33;11.25;;;12.60;99.90;;;;;;7581356;19;20105;-77
2023/09/08 04:19:50;;;;;;;13.93;10.70;;;12.60;99.90;;;;;;7581600;19;20077;-78
2023/09/08 04:22:22;;;;;;;14.10;10.20;;;12.60;99.90;;;;;;7584936;19;20011;-76
2023/09/08 04:24:56;;;;;;;16.80;10.43;;;12.60;99.90;;;;;;7577580;19;21068;-79
2023/09/08 04:27:28;;;;;;;16.75;10.82;;;12.60;99.90;;;;;;7607543;19;20022;-78
2023/09/08 04:30:01;;;;;;;15.88;10.55;;;12.60;99.90;;;;;;7581276;19;20014;-76
2023/09/08 04:32:33;;;;;;;16.83;10.87;;;12.60;99.90;;;;;;7596803;19;20021;-77
2023/09/08 04:35:07;;;;;;;15.65;10.50;;;12.60;99.90;;;;;;7567651;19;20328;-76
2023/09/08 04:37:40;;;;;;;18.13;11.02;;;12.70;99.90;;;;;;7545961;19;20094;-76
2023/09/08 04:40:12;;;;;;;15.25;11.00;;;12.70;99.90;;;;;;7594469;19;20553;-76
2023/09/08 04:42:45;;;;;;;13.43;9.82;;;12.60;99.90;;;;;;7566737;19;20023;-77
2023/09/08 04:45:18;;;;;;;14.80;9.98;;;12.70;99.90;;;;;;7568652;19;20007;-77
2023/09/08 04:47:50;;;;;;;17.23;11.30;;;12.70;99.90;;;;;;7575014;19;20603;-76
2023/09/08 04:50:24;;;;;;;15.13;9.88;;;12.70;99.90;;;;;;7579540;19;20865;-77
2023/09/08 04:52:57;;;;;;;15.80;10.82;;;12.70;99.90;;;;;;7575683;19;20011;-78
2023/09/08 04:55:30;;;;;;;;;;;12.70;99.90;;;;;;7578880;19;20097;-78
2023/09/08 04:58:02;;;;;;;14.77;11.18;;;12.80;99.90;;;;;;7577485;19;19922;-78
2023/09/08 05:00:37;;;;;;;17.80;11.27;;;12.80;99.90;;;;;;7548600;19;20023;-77
2023/09/08 05:03:09;;;;;;;16.08;10.65;;;12.80;99.90;;;;;;7567463;19;21038;-77
2023/09/08 05:05:42;;;;;;;19.83;10.43;;;12.90;99.90;;;;;;7576009;19;20060;-77
2023/09/08 05:08:15;;;;;;;13.70;10.38;;;12.80;99.90;;;;;;7576920;19;20821;-79
2023/09/08 05:10:47;;;;;;;17.25;10.10;;;12.80;99.90;;;;;;7585262;19;20026;-77
2023/09/08 05:13:26;;;;;;;16.15;10.15;;;12.90;99.90;;;;;;7592092;19;20018;-78
2023/09/08 05:16:11;;;;;;;17.23;10.68;;;12.90;99.90;;;;;;7592029;19;20061;-74
2023/09/08 05:18:54;;;;;;;14.75;10.32;;;12.90;99.90;;;;;;7581462;19;20437;-78
2023/09/08 05:21:26;;;;;;;18.00;11.43;;;12.90;99.90;;;;;;7582537;19;20010;-74
2023/09/08 05:23:59;;;;;;;16.00;10.70;;;12.90;99.90;;;;;;7569968;19;20964;-78
2023/09/08 05:26:32;;;;;;;17.60;11.02;;;12.90;99.90;;;;;;7566401;19;20573;-76
2023/09/08 05:29:04;;;;;;;16.25;10.10;;;12.90;99.90;;;;;;7578020;19;20840;-74
2023/09/08 05:31:37;;;;;;;15.73;11.30;;;12.90;99.90;;;;;;7561014;19;20029;-72
2023/09/08 05:34:10;;;;;;;19.38;10.73;;;13.00;99.90;;;;;;7571899;19;21256;-73
2023/09/08 05:36:42;;;;;;;19.17;10.88;;;13.00;99.90;;;;;;7568980;19;20026;-74
2023/09/08 05:39:15;;;;;;;18.77;10.60;;;13.10;99.90;;;;;;7572143;19;20018;-73
2023/09/08 05:41:48;;;;;;;14.45;10.00;;;13.10;99.90;;;;;;7559735;19;20015;-73
2023/09/08 05:44:20;;;;;;;13.27;9.97;;;13.20;99.90;;;;;;7577888;19;20013;-73
2023/09/08 05:46:54;;;;;;;13.73;10.32;;;13.20;99.90;;;;;;7571018;19;20022;-73
2023/09/08 05:49:28;;;;;;;17.08;10.75;;;13.30;99.90;;;;;;7556843;19;20014;-75
2023/09/08 05:52:01;;;;;;;13.85;10.10;;;13.40;99.90;;;;;;7566824;19;20040;-73
2023/09/08 05:54:35;;;;;;;14.07;10.77;;;13.40;99.90;;;;;;7583998;19;20128;-74
2023/09/08 05:57:08;;;;;;;16.08;10.32;;;13.50;99.90;;;;;;7580405;19;20018;-73
2023/09/08 05:59:40;;;;;;;14.55;10.82;;;13.50;99.90;;;;;;7586090;19;20114;-74
2023/09/08 06:02:12;;;;;;;15.02;11.02;;;13.60;99.90;;;;;;7574963;19;20018;-73
2023/09/08 06:04:45;;;;;;;18.20;11.25;;;13.70;99.90;;;;;;7562444;19;20007;-73
2023/09/08 06:07:18;;;;;;;18.83;11.68;;;13.80;99.90;;;;;;7552437;19;20019;-73
2023/09/08 06:09:50;;;;;;;20.67;11.85;;;13.90;99.90;;;;;;7558829;19;20016;-74
2023/09/08 06:12:22;;;;;;;14.52;10.82;;;14.00;99.90;;;;;;7562393;19;20017;-73
2023/09/08 06:14:55;;;;;;;19.70;10.95;;;14.10;99.90;;;;;;7547087;19;20775;-73
2023/09/08 06:17:27;;;;;;;16.52;11.50;;;14.20;99.90;;;;;;7571108;19;20479;-75
2023/09/08 06:20:00;;;;;;;18.70;10.85;;;14.30;99.90;;;;;;7553570;19;21004;-75
2023/09/08 06:22:32;;;;;;;14.82;11.73;;;14.50;99.90;;;;;;7556502;19;20052;-74
2023/09/08 06:25:05;;;;;;;19.50;12.27;;;14.60;99.90;;;;;;7544770;19;20037;-75
2023/09/08 06:27:37;;;;;;;22.35;12.30;;;14.70;99.90;;;;;;7557785;19;20086;-75
2023/09/08 06:30:10;;;;;;;16.08;10.63;;;14.80;99.90;;;;;;7562299;19;20529;-75
2023/09/08 06:32:43;;;;;;;21.20;11.52;;;15.00;99.90;;;;;;7534365;19;20580;-73
2023/09/08 06:35:16;;;;;;;;;;;15.20;99.90;;;;;;7563030;19;20018;-73
2023/09/08 06:37:49;;;;;;;18.50;12.65;;;15.30;99.90;;;;;;7536370;19;19918;-76
2023/09/08 06:40:21;;;;;;;18.48;12.75;;;15.50;99.90;;;;;;7551548;19;20060;-74
2023/09/08 06:42:53;;;;;;;18.42;12.02;;;15.60;99.90;;;;;;7568207;19;20013;-73
2023/09/08 06:45:40;;;;;;;19.65;12.80;;;15.80;99.90;;;;;;7568507;19;20011;-74
2023/09/08 06:48:13;;;;;;;16.60;13.70;;;16.00;99.90;;;;;;7570762;19;20019;-75
2023/09/08 06:50:45;;;;;;;15.77;12.57;;;16.10;99.90;;;;;;7551967;19;20599;-74
2023/09/08 06:53:18;;;;;;;15.27;12.43;;;16.40;99.90;;;;;;7565068;19;20033;-73
2023/09/08 06:55:50;;;;;;;18.90;13.45;;;16.60;99.90;;;;;;7579177;19;20015;-75
2023/09/08 06:58:22;;;;;;;20.02;12.73;;;16.80;99.90;;;;;;7579530;19;20025;-74
2023/09/08 07:00:55;;;;;;;26.98;13.15;;;16.90;99.90;;;;;;7571705;19;20893;-74
2023/09/08 07:03:28;;;;;;;19.23;12.63;;;17.00;99.90;;;;;;7583629;19;20051;-74
2023/09/08 07:06:01;;;;;;;17.02;12.95;;;17.20;99.90;;;;;;7566078;19;20089;-74
2023/09/08 07:08:33;;;;;;;17.60;11.95;;;17.40;99.90;;;;;;7563656;19;20018;-74
2023/09/08 07:11:06;;;;;;;13.73;11.30;;;17.70;99.90;;;;;;7550965;19;20459;-74
2023/09/08 07:13:39;;;;;;;17.15;11.48;;;17.80;99.90;;;;;;7583014;19;20484;-74
2023/09/08 07:16:11;;;;;;;19.83;11.50;;;18.00;99.90;;;;;;7590499;19;20531;-75
2023/09/08 07:18:44;;;;;;;15.60;11.57;;;18.20;99.90;;;;;;7590603;19;20396;-76
2023/09/08 07:21:17;;;;;;;15.15;11.23;;;18.20;99.90;;;;;;7595823;19;20014;-74
2023/09/08 07:23:49;;;;;;;15.48;10.93;;;18.40;99.90;;;;;;7574083;19;20026;-74
2023/09/08 07:26:22;;;;;;;14.80;11.32;;;18.60;99.90;;;;;;7587615;19;20018;-74
2023/09/08 07:28:55;;;;;;;14.23;11.30;;;18.70;99.90;;;;;;7572574;19;20033;-74
2023/09/08 07:31:27;;;;;;;14.80;11.90;;;18.90;99.90;;;;;;7558444;19;20506;-73
2023/09/08 07:34:00;;;;;;;15.73;11.25;;;19.10;99.90;;;;;;7556555;19;20007;-75
2023/09/08 07:36:32;;;;;;;17.13;11.23;;;19.10;99.90;;;;;;7567508;19;20044;-74
2023/09/08 07:39:05;;;;;;;17.77;11.68;;;19.20;99.90;;;;;;7558757;19;20757;-74
2023/09/08 07:41:39;;;;;;;17.15;12.13;;;19.30;99.90;;;;;;7585733;19;21149;-75
2023/09/08 07:44:13;;;;;;;14.45;11.75;;;19.30;99.90;;;;;;7571562;19;20014;-75
2023/09/08 07:46:48;;;;;;;16.80;11.93;;;19.50;99.90;;;;;;7584650;19;20018;-75
2023/09/08 07:49:21;;;;;;;14.90;11.73;;;19.60;99.90;;;;;;7572557;19;20105;-75
2023/09/08 07:51:53;;;;;;;14.57;11.43;;;19.90;99.90;;;;;;7582973;19;20022;-75
2023/09/08 07:54:26;;;;;;;16.08;11.73;;;19.90;99.90;;;;;;7540756;19;20026;-74
2023/09/08 07:56:58;;;;;;;14.48;10.90;;;19.80;99.90;;;;;;7582034;19;20064;-73
2023/09/08 07:59:30;;;;;;;13.25;11.30;;;20.00;99.90;;;;;;7580908;19;26189;-75
2023/09/08 08:02:03;;;;;;;13.50;11.60;;;20.20;99.90;;;;;;7583711;19;20018;-74
2023/09/08 08:04:36;;;;;;;14.02;11.35;;;20.40;99.90;;;;;;7548052;19;20672;-73
2023/09/08 08:07:08;;;;;;;16.02;11.55;;;20.50;99.90;;;;;;7557058;19;20022;-73
2023/09/08 08:09:40;;;;;;;13.18;11.02;;;20.60;99.90;;;;;;7571404;19;20014;-72
2023/09/08 08:12:14;;;;;;;16.67;11.40;;;20.80;99.90;;;;;;7559273;19;20917;-74
2023/09/08 08:14:47;;;;;;;15.05;11.25;;;20.80;99.90;;;;;;7570761;19;20015;-75
2023/09/08 08:17:20;;;;;;;18.65;12.63;;;20.80;99.90;;;;;;7552385;19;20018;-74
2023/09/08 08:19:52;;;;;;;14.45;11.85;;;20.70;99.90;;;;;;7556821;19;20276;-74
2023/09/08 08:22:27;;;;;;;15.20;12.05;;;20.80;99.90;;;;;;7583280;19;20010;-74
2023/09/08 08:25:01;;;;;;;15.98;11.88;;;20.90;99.90;;;;;;7577892;19;20014;-74
2023/09/08 08:27:34;;;;;;;12.93;10.85;;;21.10;99.90;;;;;;7584011;19;20018;-75
2023/09/08 08:30:07;;;;;;;14.70;11.48;;;21.10;99.90;;;;;;7564064;19;20014;-75
2023/09/08 08:32:39;;;;;;;14.48;11.13;;;21.10;99.90;;;;;;7541255;19;20041;-74
2023/09/08 08:35:12;;;;;;;13.57;11.45;;;21.20;99.90;;;;;;7543638;19;21439;-75
2023/09/08 08:37:44;;;;;;;12.57;10.77;;;21.20;99.90;;;;;;7516185;19;26409;-74
2023/09/08 08:40:17;;;;;;;13.47;11.10;;;21.20;99.90;;;;;;7559069;19;20010;-75
2023/09/08 08:42:55;;;;;;;13.25;10.85;;;21.40;99.90;;;;;;7534324;19;20018;-75
2023/09/08 08:45:29;;;;;;;14.68;11.05;;;21.40;99.90;;;;;;7508909;19;20019;-74
2023/09/08 08:48:03;;;;;;;15.23;10.85;;;21.50;99.90;;;;;;7548230;19;20014;-75
2023/09/08 08:50:37;;;;;;;11.95;10.63;;;21.50;99.90;;;;;;7571046;19;20082;-74
2023/09/08 08:53:12;;;;;;;16.75;10.77;;;21.60;99.90;;;;;;7569603;19;20875;-74
2023/09/08 08:55:45;;;;;;;18.40;11.50;;;21.60;99.90;;;;;;7574863;19;20610;-73
2023/09/08 08:58:24;;;;;;;15.00;11.18;;;21.50;99.90;;;;;;7581535;19;21039;-73
2023/09/08 09:00:59;;;;;;;16.08;11.50;;;21.60;99.90;;;;;;7552272;19;20010;-73
2023/09/08 09:03:31;;;;;;;13.65;10.73;;;21.70;99.90;;;;;;7547101;19;20523;-73
2023/09/08 09:06:05;;;;;;;15.02;11.20;;;21.90;99.90;;;;;;7536554;19;20047;-73
2023/09/08 09:08:38;;;;;;;;;;;21.90;99.90;;;;;;7570088;19;20021;-73
2023/09/08 09:11:11;;;;;;;17.83;12.15;;;22.00;99.90;;;;;;7503406;19;19930;-73
2023/09/08 09:13:43;;;;;;;14.07;11.35;;;22.00;99.90;;;;;;7535172;19;20025;-73
2023/09/08 09:16:15;;;;;;;19.05;11.65;;;22.10;99.90;;;;;;7547273;19;21447;-74
2023/09/08 09:19:00;;;;;;;17.70;11.15;;;22.20;99.90;;;;;;7530506;19;20014;-74
2023/09/08 09:21:44;;;;;;;14.93;11.60;;;22.20;99.90;;;;;;7541833;19;20014;-75
2023/09/08 09:24:27;;;;;;;15.48;11.30;;;22.30;99.90;;;;;;7565184;19;20018;-74
2023/09/08 09:27:01;;;;;;;13.43;11.25;;;22.20;99.90;;;;;;7593728;19;20018;-74
2023/09/08 09:29:43;;;;;;;13.85;11.23;;;22.30;99.90;;;;;;7571593;19;20122;-74
2023/09/08 09:32:16;;;;;;;16.33;11.75;;;22.30;99.90;;;;;;7575290;19;20018;-74
2023/09/08 09:34:53;;;;;;;17.40;11.38;;;22.40;99.90;;;;;;7582082;19;20018;-75
2023/09/08 09:37:25;;;;;;;14.20;11.10;;;22.50;99.90;;;;;;7582720;19;20041;-75
2023/09/08 09:40:00;;;;;;;15.75;12.07;;;22.50;99.90;;;;;;7579977;19;20053;-73
2023/09/08 09:42:32;;;;;;;13.93;10.93;;;22.50;99.90;;;;;;7585464;19;20025;-73
2023/09/08 09:45:06;;;;;;;15.75;11.70;;;22.60;99.90;;;;;;7578574;19;20025;-74
2023/09/08 09:47:38;;;;;;;21.40;11.95;;;22.70;99.90;;;;;;7582011;19;20015;-74
2023/09/08 09:50:12;;;;;;;20.67;11.35;;;22.80;99.90;;;;;;7577624;19;20028;-74
2023/09/08 09:52:48;;;;;;;15.50;11.68;;;22.80;99.90;;;;;;7577104;19;20011;-74
2023/09/08 09:55:20;;;;;;;14.70;11.27;;;22.90;99.90;;;;;;7565479;19;20690;-75
2023/09/08 09:58:03;;;;;;;17.77;11.30;;;22.90;99.90;;;;;;7577311;19;20105;-73
2023/09/08 10:00:37;;;;;;;16.97;11.27;;;23.00;99.90;;;;;;7556860;19;20023;-73
2023/09/08 10:03:10;;;;;;;;;;;23.20;99.90;;;;;;7571114;19;20272;-74
2023/09/08 10:05:43;;;;;;;17.08;11.40;;;23.40;99.90;;;;;;7586659;19;19978;-74
2023/09/08 10:08:15;;;;;;;14.65;10.98;;;23.50;99.90;;;;;;7567028;19;20927;-75
2023/09/08 10:10:47;;;;;;;11.80;10.30;;;23.60;99.90;;;;;;7577543;19;20019;-73
2023/09/08 10:13:31;;;;;;;14.77;10.93;;;23.60;99.90;;;;;;7582807;19;20749;-73
2023/09/08 10:16:05;;;;;;;15.85;11.07;;;23.80;99.90;;;;;;7547318;19;20018;-75
2023/09/08 10:18:41;;;;;;;17.50;11.30;;;23.80;99.90;;;;;;7568416;19;22191;-74
2023/09/08 10:21:16;;;;;;;12.55;10.43;;;23.80;99.90;;;;;;7569767;19;20018;-74
2023/09/08 10:24:05;;;;;;;12.80;10.55;;;23.90;99.90;;;;;;7568943;19;20674;-74
2023/09/08 10:26:43;;;;;;;20.65;10.73;;;24.00;99.90;;;;;;7567915;19;21440;-74
2023/09/08 10:29:15;;;;;;;14.80;9.82;;;24.10;99.90;;;;;;7544697;19;20111;-77
2023/09/08 10:31:47;;;;;;;16.10;9.93;;;24.30;99.90;;;;;;7555223;19;20018;-76
2023/09/08 10:34:21;;;;;;;20.33;10.57;;;24.50;99.90;;;;;;7565641;19;20025;-78
2023/09/08 10:36:54;;;;;;;15.48;10.88;;;24.60;99.90;;;;;;7582189;19;20027;-78
2023/09/08 10:39:31;;;;;;;14.05;9.60;;;24.70;99.90;;;;;;7576026;19;20022;-80
2023/09/08 10:42:16;;;;;;;15.20;10.68;;;24.70;99.90;;;;;;7555705;19;22378;-78
2023/09/08 10:44:51;;;;;;;11.63;10.18;;;24.70;99.90;;;;;;7561525;19;20026;-78
2023/09/08 10:47:45;;;;;;;10.77;9.60;;;24.70;99.90;;;;;;7575599;19;20015;-75
2023/09/08 10:50:18;;;;;;;12.10;10.05;;;24.80;99.90;;;;;;7581910;19;20023;-75
2023/09/08 10:53:16;;;;;;;13.10;9.80;;;24.90;99.90;;;;;;7570409;19;20053;-76
2023/09/08 10:55:53;;;;;;;11.63;9.45;;;25.00;99.90;;;;;;7579078;19;22011;-75
2023/09/08 10:58:32;;;;;;;14.20;10.27;;;25.10;99.90;;;;;;7574984;19;20494;-76
2023/09/08 11:01:05;;;;;;;12.60;9.45;;;25.20;99.90;;;;;;7575135;19;20128;-74
2023/09/08 11:03:37;;;;;;;11.07;9.93;;;25.30;99.90;;;;;;7579824;19;20025;-76
2023/09/08 11:06:11;;;;;;;15.40;10.83;;;25.50;99.90;;;;;;7561065;19;20010;-75
2023/09/08 11:08:45;;;;;;;13.18;10.35;;;25.60;99.90;;;;;;7556229;19;20039;-75
2023/09/08 11:11:17;;;;;;;13.20;9.27;;;25.70;99.90;;;;;;7568296;19;20022;-76
2023/09/08 11:13:49;;;;;;;11.45;9.88;;;25.80;99.90;;;;;;7572976;19;20036;-75
2023/09/08 11:16:29;;;;;;;25.90;13.48;;;25.80;99.90;;;;;;7561085;19;20010;-75
2023/09/08 11:19:04;;;;;;;32.05;15.80;;;26.00;99.90;;;;;;7576073;19;20014;-75
2023/09/08 11:21:37;;;;;;;13.38;10.13;;;26.10;99.90;;;;;;7585137;19;20018;-76
2023/09/08 11:24:14;;;;;;;13.57;9.60;;;26.30;99.90;;;;;;7575494;19;20018;-76
2023/09/08 11:26:50;;;;;;;11.00;9.73;;;26.40;99.90;;;;;;7587291;19;20018;-74
2023/09/08 11:29:23;;;;;;;13.13;9.85;;;26.60;99.90;;;;;;7559602;19;20034;-74
2023/09/08 11:31:55;;;;;;;;;;;26.80;99.90;;;;;;7556725;19;20027;-74
2023/09/08 11:34:28;;;;;;;12.95;9.80;;;27.40;99.90;;;;;;7585393;19;22199;-76
2023/09/08 11:37:07;;;;;;;;;;;28.00;99.90;;;;;;7557661;19;20045;-77
2023/09/08 11:39:40;;;;;;;12.32;9.77;;;28.70;99.60;;;;;;7545764;19;21203;-75
2023/09/08 11:42:15;;;;;;;12.35;9.05;;;29.00;98.40;;;;;;7550935;19;20044;-75
2023/09/08 11:44:49;;;;;;;17.40;8.73;;;29.50;98.50;;;;;;7556464;19;20014;-76
2023/09/08 11:47:21;;;;;;;12.98;8.68;;;30.20;97.80;;;;;;7575933;19;20029;-76
2023/09/08 11:49:54;;;;;;;10.37;9.33;;;30.50;95.70;;;;;;7576632;19;20019;-75
2023/09/08 11:52:26;;;;;;;12.80;9.52;;;30.60;94.20;;;;;;7576275;19;20015;-76
2023/09/08 11:54:59;;;;;;;12.00;8.38;;;30.80;94.10;;;;;;7543304;19;20018;-76
2023/09/08 11:57:40;;;;;;;9.80;8.80;;;31.20;94.00;;;;;;7567263;19;20015;-75
2023/09/08 12:00:17;;;;;;;9.20;8.05;;;30.80;92.30;;;;;;7567427;19;20034;-76
2023/09/08 12:02:50;;;;;;;10.95;9.35;;;31.50;92.50;;;;;;7576979;19;20017;-77
2023/09/08 12:05:28;;;;;;;11.32;9.45;;;31.80;91.40;;;;;;7570147;19;20407;-77
2023/09/08 12:08:07;;;;;;;12.25;9.82;;;32.00;91.00;;;;;;7566770;19;20019;-74
2023/09/08 12:10:40;;;;;;;15.50;9.00;;;32.00;87.80;;;;;;7575030;19;20181;-77
2023/09/08 12:13:20;;;;;;;15.63;9.73;;;32.10;91.20;;;;;;7570122;19;20014;-77
2023/09/08 12:15:53;;;;;;;13.05;8.98;;;32.30;89.80;;;;;;7558800;19;20011;-78
2023/09/08 12:18:39;;;;;;;9.75;8.60;;;32.30;88.00;;;;;;7565768;19;20006;-75
2023/09/08 12:21:12;;;;;;;12.43;8.90;;;32.60;88.30;;;;;;7557105;19;20048;-75
2023/09/08 12:23:49;;;;;;;10.77;9.63;;;33.00;87.90;;;;;;7543630;19;20714;-78
2023/09/08 12:26:25;;;;;;;12.68;9.00;;;32.90;83.40;;;;;;7541959;19;20442;-76
2023/09/08 12:28:57;;;;;;;11.23;9.60;;;32.90;86.00;;;;;;7530524;19;20017;-76
2023/09/08 12:31:29;;;;;;;16.15;10.00;;;32.80;82.00;;;;;;7571192;19;20090;-76
2023/09/08 12:34:02;;;;;;;11.20;9.20;;;32.70;82.10;;;;;;7572632;19;20011;-75
2023/09/08 12:36:36;;;;;;;11.25;9.23;;;32.70;81.80;;;;;;7542128;19;20601;-75
2023/09/08 12:39:08;;;;;;;16.10;9.93;;;32.80;82.00;;;;;;7565633;19;20021;-75
2023/09/08 12:41:40;;;;;;;12.07;9.10;;;32.70;79.40;;;;;;7562184;19;20017;-76
2023/09/08 12:44:13;;;;;;;12.07;9.48;;;32.70;82.10;;;;;;7552818;19;20014;-76
2023/09/08 12:46:45;;;;;;;12.02;9.57;;;32.90;81.40;;;;;;7549518;19;20896;-76
2023/09/08 12:49:18;;;;;;;17.52;9.48;;;33.00;80.20;;;;;;7573194;19;20018;-76
2023/09/08 12:51:50;;;;;;;12.85;9.30;;;33.00;80.80;;;;;;7542219;19;20480;-75
2023/09/08 12:54:22;;;;;;;16.58;10.55;;;33.30;78.80;;;;;;7534923;19;20025;-75
2023/09/08 12:56:55;;;;;;;12.75;9.52;;;32.80;79.70;;;;;;7532574;19;20015;-75
2023/09/08 12:59:27;;;;;;;15.60;9.32;;;33.10;79.50;;;;;;7545256;19;20058;-76
2023/09/08 13:02:00;;;;;;;;;;;33.20;77.90;;;;;;7556032;19;20015;-76
2023/09/08 13:04:32;;;;;;;12.50;9.68;;;33.50;79.00;;;;;;7565624;19;20269;-76
2023/09/08 13:07:05;;;;;;;12.40;9.23;;;33.40;75.80;;;;;;7557542;19;20019;-75